Decoded Metar for KSDM (SAN DIEGO/BROWN in CA, USA) (IATA:SDM) | Meteo·Mobile Aviation Weather
aviador You're here:

KSDM Decoded Metar

SAN DIEGO/BROWN in CA, USA
Report Time2019-04-20 10:53:00
UTC Time2019-04-20 11:02:53
Flight Rules mvfr MVFR
Wind270° at 03 kt
W.Decomp.*RWY 26: 3.0 kt HW 0.2 kt LCW
Visibility9999 m
Phenomena:N/A
Clouds:Overcast 022 Hf
Expected CloudBase > 1,200 ft AGL from Temp-Dew spread
Ceiling2,200 ft
Temp14°C (ISA 0)
Dew Point11°C (82% RH)
AAT13.2°C
QNH1015 hPa
Density Alt636 ft
Elevation522 ft
Report Wrong Elevation
Raw Report
KSDM 201053Z AUTO 27003KT 10SM OVC022 14/11 A2996 RMK AO2 SLP143
T01390106=

Extra information for KSDM:More info

Metar Taf Metar & Taf Last 4 Metars F.Rules Stats Wind Profile Meteogram Temp Stats Airport Information Weather charts Add Link Nearby VenuesMetar ALERT Operation Metar Decoded Social comments

AIRNAV info for KSDM